UKDR/KWG METAR and TAF weather

Enter ICAO airport designator
Station Type Date Time Source
UKDR METAR 2020/04/09 09:00 UTC NOAA

UKDR 090900Z 02004MPS 330V100 CAVOK 15/01 Q1020 R36/09//70 NOSIG


Station Type Date Time Source
UKDR Decoded METAR 2020/04/09 09:00 UTC NOAA

Krivyy Rih / Dnipropetrovs'k, Ukraine (UKDR) 48-03N 033-13-12E
Apr 09, 2020 - 05:00 AM EDT / 2020.04.09 0900 UTC
Wind: from the NNE (020 degrees) at 9 MPH (8 KT) (direction variable):0
Visibility: greater than 7 mile(s):0
Temperature: 59 F (15 C)
Dew Point: 33 F (1 C)
Relative Humidity: 38%
Pressure (altimeter): 30.12 in. Hg (1020 hPa)
ob: UKDR 090900Z 02004MPS 330V100 CAVOK 15/01 Q1020 R36/09//70 NOSIG
cycle: 9

Station Type Date Time Source
UKDR TAF 2020/04/09 06:00 UTC NOAA

TAF UKDR 090501Z 0906/1006 01006MPS CAVOK TX17/0912Z TN04/1003Z
BECMG 0916/0918 VRB01MPS

Example: see airport list